sensor_id;sensor_type;location;lat;lon;timestamp;pressure;altitude;pressure_sealevel;temperature;humidity
76022;BME280;64718;52.124;6.226;2023-07-31T00:00:11;100974.75;;;14.37;100.00
76022;BME280;64718;52.124;6.226;2023-07-31T00:02:38;100982.66;;;14.36;100.00
76022;BME280;64718;52.124;6.226;2023-07-31T00:05:05;100978.44;;;14.33;100.00
76022;BME280;64718;52.124;6.226;2023-07-31T00:07:32;100980.97;;;14.35;100.00
76022;BME280;64718;52.124;6.226;2023-07-31T00:09:58;100972.78;;;14.41;100.00
76022;BME280;64718;52.124;6.226;2023-07-31T00:12:26;100972.03;;;14.39;100.00
76022;BME280;64718;52.124;6.226;2023-07-31T00:14:53;100978.19;;;14.38;100.00
76022;BME280;64718;52.124;6.226;2023-07-31T00:17:19;100972.78;;;14.41;100.00
76022;BME280;64718;52.124;6.226;2023-07-31T00:19:46;100970.13;;;14.42;100.00
76022;BME280;64718;52.124;6.226;2023-07-31T00:22:15;100959.34;;;14.48;100.00
76022;BME280;64718;52.124;6.226;2023-07-31T00:24:42;100961.78;;;14.51;100.00
76022;BME280;64718;52.124;6.226;2023-07-31T00:27:09;100958.31;;;14.51;100.00
76022;BME280;64718;52.124;6.226;2023-07-31T00:29:37;100951.38;;;14.50;100.00
76022;BME280;64718;52.124;6.226;2023-07-31T00:32:04;100950.38;;;14.52;100.00
76022;BME280;64718;52.124;6.226;2023-07-31T00:34:30;100944.59;;;14.62;100.00
76022;BME280;64718;52.124;6.226;2023-07-31T00:36:57;100940.78;;;14.67;100.00
76022;BME280;64718;52.124;6.226;2023-07-31T00:39:23;100937.91;;;14.72;100.00
76022;BME280;64718;52.124;6.226;2023-07-31T00:41:50;100929.19;;;14.71;100.00
76022;BME280;64718;52.124;6.226;2023-07-31T00:44:17;100938.66;;;14.74;100.00
76022;BME280;64718;52.124;6.226;2023-07-31T00:46:45;100932.66;;;14.72;100.00
76022;BME280;64718;52.124;6.226;2023-07-31T00:49:11;100922.75;;;14.77;100.00
76022;BME280;64718;52.124;6.226;2023-07-31T00:51:38;100923.97;;;14.71;100.00
76022;BME280;64718;52.124;6.226;2023-07-31T00:54:06;100922.84;;;14.75;100.00
76022;BME280;64718;52.124;6.226;2023-07-31T00:56:32;100927.53;;;14.84;100.00
76022;BME280;64718;52.124;6.226;2023-07-31T00:58:59;100918.38;;;14.92;100.00
76022;BME280;64718;52.124;6.226;2023-07-31T01:01:27;100917.47;;;14.93;100.00
76022;BME280;64718;52.124;6.226;2023-07-31T01:03:55;100910.25;;;14.96;100.00
76022;BME280;64718;52.124;6.226;2023-07-31T01:06:29;100908.47;;;14.97;100.00
76022;BME280;64718;52.124;6.226;2023-07-31T01:09:02;100910.41;;;15.09;100.00
76022;BME280;64718;52.124;6.226;2023-07-31T01:11:31;100910.13;;;15.13;100.00
76022;BME280;64718;52.124;6.226;2023-07-31T01:13:59;100907.03;;;15.21;100.00
76022;BME280;64718;52.124;6.226;2023-07-31T01:16:26;100899.06;;;15.23;100.00
76022;BME280;64718;52.124;6.226;2023-07-31T01:18:54;100899.72;;;15.26;100.00
76022;BME280;64718;52.124;6.226;2023-07-31T01:24:21;100886.81;;;15.37;100.00
76022;BME280;64718;52.124;6.226;2023-07-31T01:26:55;100886.44;;;15.43;100.00
76022;BME280;64718;52.124;6.226;2023-07-31T01:29:29;100881.84;;;15.47;100.00
76022;BME280;64718;52.124;6.226;2023-07-31T01:32:01;100880.09;;;15.62;100.00
76022;BME280;64718;52.124;6.226;2023-07-31T01:34:28;100874.56;;;15.66;100.00
76022;BME280;64718;52.124;6.226;2023-07-31T01:36:56;100877.13;;;15.80;100.00
76022;BME280;64718;52.124;6.226;2023-07-31T01:39:23;100862.94;;;15.97;100.00
76022;BME280;64718;52.124;6.226;2023-07-31T01:41:51;100864.38;;;15.89;100.00
76022;BME280;64718;52.124;6.226;2023-07-31T01:44:18;100869.88;;;15.98;100.00
76022;BME280;64718;52.124;6.226;2023-07-31T01:46:44;100871.25;;;16.04;100.00
76022;BME280;64718;52.124;6.226;2023-07-31T01:49:11;100867.66;;;16.19;100.00
76022;BME280;64718;52.124;6.226;2023-07-31T01:51:37;100858.44;;;16.26;100.00
76022;BME280;64718;52.124;6.226;2023-07-31T01:54:04;100854.34;;;16.35;100.00
76022;BME280;64718;52.124;6.226;2023-07-31T01:56:31;100857.91;;;16.34;100.00
76022;BME280;64718;52.124;6.226;2023-07-31T01:58:58;100848.59;;;16.42;100.00
76022;BME280;64718;52.124;6.226;2023-07-31T02:01:25;100843.34;;;16.42;100.00
76022;BME280;64718;52.124;6.226;2023-07-31T02:03:52;100832.00;;;16.42;100.00
76022;BME280;64718;52.124;6.226;2023-07-31T02:06:19;100837.56;;;16.50;100.00
76022;BME280;64718;52.124;6.226;2023-07-31T02:08:45;100832.63;;;16.58;100.00
76022;BME280;64718;52.124;6.226;2023-07-31T02:11:12;100833.06;;;16.65;100.00
76022;BME280;64718;52.124;6.226;2023-07-31T02:13:39;100837.41;;;16.66;100.00
76022;BME280;64718;52.124;6.226;2023-07-31T02:16:07;100819.03;;;16.66;100.00
76022;BME280;64718;52.124;6.226;2023-07-31T02:18:33;100828.69;;;16.65;100.00
76022;BME280;64718;52.124;6.226;2023-07-31T02:21:00;100824.44;;;16.63;100.00
76022;BME280;64718;52.124;6.226;2023-07-31T02:23:27;100821.94;;;16.61;100.00
76022;BME280;64718;52.124;6.226;2023-07-31T02:25:53;100817.31;;;16.65;100.00
76022;BME280;64718;52.124;6.226;2023-07-31T02:28:20;100819.63;;;16.57;100.00
76022;BME280;64718;52.124;6.226;2023-07-31T02:30:46;100817.31;;;16.65;100.00
76022;BME280;64718;52.124;6.226;2023-07-31T02:33:14;100820.34;;;16.59;100.00
76022;BME280;64718;52.124;6.226;2023-07-31T02:35:41;100815.94;;;16.47;100.00
76022;BME280;64718;52.124;6.226;2023-07-31T02:38:07;100818.34;;;16.50;100.00
76022;BME280;64718;52.124;6.226;2023-07-31T02:40:34;100813.22;;;16.48;100.00
76022;BME280;64718;52.124;6.226;2023-07-31T02:43:01;100815.72;;;16.50;100.00
76022;BME280;64718;52.124;6.226;2023-07-31T02:45:27;100811.31;;;16.50;100.00
76022;BME280;64718;52.124;6.226;2023-07-31T02:47:54;100817.19;;;16.41;100.00
76022;BME280;64718;52.124;6.226;2023-07-31T02:50:22;100819.28;;;16.36;100.00
76022;BME280;64718;52.124;6.226;2023-07-31T02:52:48;100822.13;;;16.45;100.00
76022;BME280;64718;52.124;6.226;2023-07-31T02:55:15;100808.38;;;16.55;100.00
76022;BME280;64718;52.124;6.226;2023-07-31T02:57:42;100818.34;;;16.37;100.00
76022;BME280;64718;52.124;6.226;2023-07-31T03:00:09;100821.50;;;16.42;100.00
76022;BME280;64718;52.124;6.226;2023-07-31T03:02:35;100817.41;;;16.38;100.00
76022;BME280;64718;52.124;6.226;2023-07-31T03:05:02;100813.28;;;16.34;100.00
76022;BME280;64718;52.124;6.226;2023-07-31T03:07:30;100824.53;;;16.36;100.00
76022;BME280;64718;52.124;6.226;2023-07-31T03:09:57;100821.59;;;16.40;100.00
76022;BME280;64718;52.124;6.226;2023-07-31T03:12:24;100815.81;;;16.35;100.00
76022;BME280;64718;52.124;6.226;2023-07-31T03:14:50;100809.31;;;16.41;100.00
76022;BME280;64718;52.124;6.226;2023-07-31T03:17:17;100808.16;;;16.45;100.00
76022;BME280;64718;52.124;6.226;2023-07-31T03:19:43;100806.47;;;16.44;100.00
76022;BME280;64718;52.124;6.226;2023-07-31T03:22:10;100814.56;;;16.54;100.00
76022;BME280;64718;52.124;6.226;2023-07-31T03:24:38;100810.69;;;16.47;100.00
76022;BME280;64718;52.124;6.226;2023-07-31T03:27:05;100811.00;;;16.55;100.00
76022;BME280;64718;52.124;6.226;2023-07-31T03:29:32;100804.06;;;16.54;100.00
76022;BME280;64718;52.124;6.226;2023-07-31T03:31:58;100812.47;;;16.46;100.00
76022;BME280;64718;52.124;6.226;2023-07-31T03:34:26;100814.25;;;16.58;100.00
76022;BME280;64718;52.124;6.226;2023-07-31T03:36:52;100819.09;;;16.52;100.00
76022;BME280;64718;52.124;6.226;2023-07-31T03:39:19;100806.81;;;16.52;100.00
76022;BME280;64718;52.124;6.226;2023-07-31T03:41:47;100811.53;;;16.47;100.00
76022;BME280;64718;52.124;6.226;2023-07-31T03:44:14;100798.41;;;16.47;100.00
76022;BME280;64718;52.124;6.226;2023-07-31T03:46:40;100806.69;;;16.41;100.00
76022;BME280;64718;52.124;6.226;2023-07-31T03:49:07;100809.53;;;16.51;100.00
76022;BME280;64718;52.124;6.226;2023-07-31T03:51:33;100800.91;;;16.49;100.00
76022;BME280;64718;52.124;6.226;2023-07-31T03:54:00;100797.75;;;16.43;100.00
76022;BME280;64718;52.124;6.226;2023-07-31T03:56:27;100799.56;;;16.43;100.00
76022;BME280;64718;52.124;6.226;2023-07-31T03:58:54;100802.06;;;16.44;100.00
76022;BME280;64718;52.124;6.226;2023-07-31T04:01:21;100798.41;;;16.47;100.00
76022;BME280;64718;52.124;6.226;2023-07-31T04:03:49;100794.09;;;16.46;100.00
76022;BME280;64718;52.124;6.226;2023-07-31T04:06:16;100794.72;;;16.37;100.00
76022;BME280;64718;52.124;6.226;2023-07-31T04:08:43;100800.38;;;16.31;100.00
76022;BME280;64718;52.124;6.226;2023-07-31T04:11:10;100802.91;;;16.32;100.00
76022;BME280;64718;52.124;6.226;2023-07-31T04:13:36;100799.75;;;16.27;100.00
76022;BME280;64718;52.124;6.226;2023-07-31T04:16:05;100810.56;;;16.23;100.00
76022;BME280;64718;52.124;6.226;2023-07-31T04:18:31;100811.28;;;16.25;100.00
76022;BME280;64718;52.124;6.226;2023-07-31T04:20:58;100811.28;;;16.25;100.00
76022;BME280;64718;52.124;6.226;2023-07-31T04:23:26;100797.22;;;16.26;100.00
76022;BME280;64718;52.124;6.226;2023-07-31T04:25:53;100786.31;;;16.32;100.00
76022;BME280;64718;52.124;6.226;2023-07-31T04:28:20;100789.66;;;16.21;100.00
76022;BME280;64718;52.124;6.226;2023-07-31T04:30:46;100787.88;;;16.22;100.00
76022;BME280;64718;52.124;6.226;2023-07-31T04:33:14;100784.50;;;16.20;100.00
76022;BME280;64718;52.124;6.226;2023-07-31T04:35:41;100787.13;;;16.20;100.00
76022;BME280;64718;52.124;6.226;2023-07-31T04:38:08;100791.13;;;16.25;100.00
76022;BME280;64718;52.124;6.226;2023-07-31T04:40:34;100785.88;;;16.25;100.00
76022;BME280;64718;52.124;6.226;2023-07-31T04:43:01;100784.09;;;16.26;100.00
76022;BME280;64718;52.124;6.226;2023-07-31T04:45:27;100781.88;;;16.20;100.00
76022;BME280;64718;52.124;6.226;2023-07-31T04:47:54;100785.97;;;16.24;100.00
76022;BME280;64718;52.124;6.226;2023-07-31T04:50:22;100778.00;;;16.25;100.00
76022;BME280;64718;52.124;6.226;2023-07-31T04:52:48;100784.69;;;16.17;100.00
76022;BME280;64718;52.124;6.226;2023-07-31T04:55:15;100762.56;;;16.21;100.00
76022;BME280;64718;52.124;6.226;2023-07-31T04:57:42;100770.19;;;16.11;100.00
76022;BME280;64718;52.124;6.226;2023-07-31T05:00:10;100766.13;;;16.20;100.00
76022;BME280;64718;52.124;6.226;2023-07-31T05:02:37;100766.22;;;16.18;100.00
76022;BME280;64718;52.124;6.226;2023-07-31T05:05:04;100763.31;;;16.23;100.00
76022;BME280;64718;52.124;6.226;2023-07-31T05:07:32;100769.09;;;16.28;100.00
76022;BME280;64718;52.124;6.226;2023-07-31T05:09:58;100761.94;;;16.30;100.00
76022;BME280;64718;52.124;6.226;2023-07-31T05:12:25;100757.75;;;16.27;100.00
76022;BME280;64718;52.124;6.226;2023-07-31T05:14:52;100762.78;;;16.30;100.00
76022;BME280;64718;52.124;6.226;2023-07-31T05:17:18;100767.41;;;16.27;100.00
76022;BME280;64718;52.124;6.226;2023-07-31T05:19:45;100756.81;;;16.41;100.00
76022;BME280;64718;52.124;6.226;2023-07-31T05:22:12;100752.81;;;16.48;100.00
76022;BME280;64718;52.124;6.226;2023-07-31T05:24:40;100747.03;;;16.43;100.00
76022;BME280;64718;52.124;6.226;2023-07-31T05:27:06;100751.44;;;16.42;100.00
76022;BME280;64718;52.124;6.226;2023-07-31T05:29:33;100748.63;;;16.45;100.00
76022;BME280;64718;52.124;6.226;2023-07-31T05:32:00;100746.00;;;16.45;100.00
76022;BME280;64718;52.124;6.226;2023-07-31T05:34:26;100745.34;;;16.42;100.00
76022;BME280;64718;52.124;6.226;2023-07-31T05:36:53;100744.84;;;16.37;100.00
76022;BME280;64718;52.124;6.226;2023-07-31T05:39:20;100741.38;;;16.36;100.00
76022;BME280;64718;52.124;6.226;2023-07-31T05:41:48;100747.34;;;16.38;100.00
76022;BME280;64718;52.124;6.226;2023-07-31T05:44:14;100743.25;;;16.34;100.00
76022;BME280;64718;52.124;6.226;2023-07-31T05:46:41;100743.06;;;16.37;100.00
76022;BME280;64718;52.124;6.226;2023-07-31T05:49:07;100744.31;;;16.32;100.00
76022;BME280;64718;52.124;6.226;2023-07-31T05:51:34;100739.59;;;16.24;100.00
76022;BME280;64718;52.124;6.226;2023-07-31T05:54:01;100749.03;;;16.27;100.00
76022;BME280;64718;52.124;6.226;2023-07-31T05:56:27;100739.59;;;16.24;100.00
76022;BME280;64718;52.124;6.226;2023-07-31T05:58:55;100732.19;;;16.17;100.00
76022;BME280;64718;52.124;6.226;2023-07-31T06:01:22;100732.31;;;16.15;100.00
76022;BME280;64718;52.124;6.226;2023-07-31T06:03:49;100728.00;;;16.14;100.00
76022;BME280;64718;52.124;6.226;2023-07-31T06:06:15;100735.03;;;16.13;100.00
76022;BME280;64718;52.124;6.226;2023-07-31T06:08:42;100735.53;;;16.06;100.00
76022;BME280;64718;52.124;6.226;2023-07-31T06:11:09;100729.47;;;16.05;100.00
76022;BME280;64718;52.124;6.226;2023-07-31T06:13:35;100724.09;;;16.07;100.00
76022;BME280;64718;52.124;6.226;2023-07-31T06:16:03;100719.78;;;15.93;100.00
76022;BME280;64718;52.124;6.226;2023-07-31T06:18:31;100720.31;;;15.98;100.00
76022;BME280;64718;52.124;6.226;2023-07-31T06:20:58;100714.44;;;15.95;100.00
76022;BME280;64718;52.124;6.226;2023-07-31T06:23:25;100713.28;;;15.99;100.00
76022;BME280;64718;52.124;6.226;2023-07-31T06:25:51;100718.22;;;16.03;100.00
76022;BME280;64718;52.124;6.226;2023-07-31T06:28:18;100717.06;;;16.07;100.00
76022;BME280;64718;52.124;6.226;2023-07-31T06:30:44;100713.09;;;16.14;100.00
76022;BME280;64718;52.124;6.226;2023-07-31T06:33:12;100706.63;;;16.20;100.00
76022;BME280;64718;52.124;6.226;2023-07-31T06:35:39;100703.22;;;16.18;100.00
76022;BME280;64718;52.124;6.226;2023-07-31T06:38:05;100711.75;;;16.22;100.00
76022;BME280;64718;52.124;6.226;2023-07-31T06:40:32;100704.81;;;16.33;100.00
76022;BME280;64718;52.124;6.226;2023-07-31T06:42:59;100699.13;;;16.52;100.00
76022;BME280;64718;52.124;6.226;2023-07-31T06:45:31;100695.66;;;16.64;100.00
76022;BME280;64718;52.124;6.226;2023-07-31T06:47:58;100682.75;;;16.61;100.00
76022;BME280;64718;52.124;6.226;2023-07-31T06:50:28;100689.56;;;16.64;100.00
76022;BME280;64718;52.124;6.226;2023-07-31T06:52:54;100689.16;;;16.83;100.00
76022;BME280;64718;52.124;6.226;2023-07-31T06:55:21;100687.81;;;16.77;100.00
76022;BME280;64718;52.124;6.226;2023-07-31T06:57:50;100685.03;;;16.91;100.00
76022;BME280;64718;52.124;6.226;2023-07-31T07:00:17;100680.00;;;16.75;100.00
76022;BME280;64718;52.124;6.226;2023-07-31T07:02:45;100680.66;;;16.79;100.00
76022;BME280;64718;52.124;6.226;2023-07-31T07:05:12;100670.34;;;16.89;100.00
76022;BME280;64718;52.124;6.226;2023-07-31T07:07:41;100663.13;;;16.80;100.00
76022;BME280;64718;52.124;6.226;2023-07-31T07:10:08;100662.78;;;16.84;100.00
76022;BME280;64718;52.124;6.226;2023-07-31T07:12:35;100670.56;;;16.86;100.00
76022;BME280;64718;52.124;6.226;2023-07-31T07:15:02;100667.25;;;16.95;100.00
76022;BME280;64718;52.124;6.226;2023-07-31T07:17:29;100667.03;;;16.98;100.00
76022;BME280;64718;52.124;6.226;2023-07-31T07:19:57;100667.47;;;16.92;100.00
76022;BME280;64718;52.124;6.226;2023-07-31T07:22:24;100671.78;;;16.93;100.00
76022;BME280;64718;52.124;6.226;2023-07-31T07:24:52;100667.47;;;16.92;100.00
76022;BME280;64718;52.124;6.226;2023-07-31T07:27:19;100663.69;;;16.96;100.00
76022;BME280;64718;52.124;6.226;2023-07-31T07:29:46;100659.78;;;17.01;100.00
76022;BME280;64718;52.124;6.226;2023-07-31T07:32:13;100656.88;;;16.93;100.00
76022;BME280;64718;52.124;6.226;2023-07-31T07:34:39;100654.13;;;16.95;100.00
76022;BME280;64718;52.124;6.226;2023-07-31T07:37:06;100654.19;;;17.06;100.00
76022;BME280;64718;52.124;6.226;2023-07-31T07:39:33;100648.59;;;17.34;100.00
76022;BME280;64718;52.124;6.226;2023-07-31T07:42:00;100652.13;;;17.46;100.00
76022;BME280;64718;52.124;6.226;2023-07-31T07:44:27;100644.03;;;17.60;100.00
76022;BME280;64718;52.124;6.226;2023-07-31T07:46:54;100645.75;;;17.73;100.00
76022;BME280;64718;52.124;6.226;2023-07-31T07:49:20;100656.69;;;17.31;100.00
76022;BME280;64718;52.124;6.226;2023-07-31T07:51:48;100635.13;;;17.39;100.00
76022;BME280;64718;52.124;6.226;2023-07-31T07:54:14;100642.66;;;17.44;100.00
76022;BME280;64718;52.124;6.226;2023-07-31T07:56:42;100636.91;;;17.38;100.00
76022;BME280;64718;52.124;6.226;2023-07-31T07:59:10;100640.66;;;17.47;100.00
76022;BME280;64718;52.124;6.226;2023-07-31T08:01:37;100635.28;;;17.49;100.00
76022;BME280;64718;52.124;6.226;2023-07-31T08:04:03;100644.19;;;17.35;100.00
76022;BME280;64718;52.124;6.226;2023-07-31T08:06:30;100638.47;;;17.41;100.00
76022;BME280;64718;52.124;6.226;2023-07-31T08:08:56;100629.13;;;17.37;100.00
76022;BME280;64718;52.124;6.226;2023-07-31T08:11:23;100625.97;;;17.32;100.00
76022;BME280;64718;52.124;6.226;2023-07-31T08:13:50;100625.25;;;17.30;100.00
76022;BME280;64718;52.124;6.226;2023-07-31T08:16:18;100619.47;;;17.37;100.00
76022;BME280;64718;52.124;6.226;2023-07-31T08:18:44;100628.78;;;17.42;100.00
76022;BME280;64718;52.124;6.226;2023-07-31T08:21:11;100621.66;;;17.31;100.00
76022;BME280;64718;52.124;6.226;2023-07-31T08:23:37;100630.34;;;17.44;100.00
76022;BME280;64718;52.124;6.226;2023-07-31T08:26:04;100625.09;;;17.44;100.00
76022;BME280;64718;52.124;6.226;2023-07-31T08:28:31;100621.16;;;17.50;100.00
76022;BME280;64718;52.124;6.226;2023-07-31T08:30:57;100612.34;;;18.42;100.00
76022;BME280;64718;52.124;6.226;2023-07-31T08:33:25;100613.19;;;18.64;100.00
76022;BME280;64718;52.124;6.226;2023-07-31T08:35:52;100612.09;;;18.56;100.00
76022;BME280;64718;52.124;6.226;2023-07-31T08:38:18;100607.91;;;18.31;100.00
76022;BME280;64718;52.124;6.226;2023-07-31T08:40:45;100607.56;;;18.24;100.00
76022;BME280;64718;52.124;6.226;2023-07-31T08:43:11;100608.53;;;18.12;100.00
76022;BME280;64718;52.124;6.226;2023-07-31T08:45:38;100609.72;;;18.19;100.00
76022;BME280;64718;52.124;6.226;2023-07-31T08:48:08;100599.66;;;18.02;100.00
76022;BME280;64718;52.124;6.226;2023-07-31T08:50:36;100606.25;;;18.30;100.00
76022;BME280;64718;52.124;6.226;2023-07-31T08:53:03;100607.81;;;18.10;100.00
76022;BME280;64718;52.124;6.226;2023-07-31T08:55:31;100601.34;;;18.14;100.00
76022;BME280;64718;52.124;6.226;2023-07-31T08:57:58;100596.31;;;18.11;100.00
76022;BME280;64718;52.124;6.226;2023-07-31T09:00:25;100600.13;;;18.18;100.00
76022;BME280;64718;52.124;6.226;2023-07-31T09:02:56;100595.44;;;18.44;100.00
76022;BME280;64718;52.124;6.226;2023-07-31T09:05:28;100592.38;;;18.61;100.00
76022;BME280;64718;52.124;6.226;2023-07-31T09:07:57;100598.09;;;18.67;100.00
76022;BME280;64718;52.124;6.226;2023-07-31T09:10:24;100594.38;;;18.58;100.00
76022;BME280;64718;52.124;6.226;2023-07-31T09:12:52;100595.69;;;18.75;100.00
76022;BME280;64718;52.124;6.226;2023-07-31T09:15:18;100602.53;;;18.32;100.00
76022;BME280;64718;52.124;6.226;2023-07-31T09:17:45;100596.66;;;18.29;100.00
76022;BME280;64718;52.124;6.226;2023-07-31T09:20:16;100592.06;;;19.19;100.00
76022;BME280;64718;52.124;6.226;2023-07-31T09:22:43;100591.41;;;18.62;100.00
76022;BME280;64718;52.124;6.226;2023-07-31T09:25:18;100590.56;;;18.62;100.00
76022;BME280;64718;52.124;6.226;2023-07-31T09:27:48;100585.31;;;18.62;100.00
76022;BME280;64718;52.124;6.226;2023-07-31T09:30:15;100601.50;;;18.89;100.00
76022;BME280;64718;52.124;6.226;2023-07-31T09:32:42;100590.03;;;18.79;100.00
76022;BME280;64718;52.124;6.226;2023-07-31T09:35:20;100584.41;;;18.84;100.00
76022;BME280;64718;52.124;6.226;2023-07-31T09:37:51;100586.94;;;18.74;100.00
76022;BME280;64718;52.124;6.226;2023-07-31T09:40:30;100582.88;;;18.59;100.00
76022;BME280;64718;52.124;6.226;2023-07-31T09:42:57;100588.22;;;18.91;100.00
76022;BME280;64718;52.124;6.226;2023-07-31T09:45:25;100582.22;;;18.89;100.00
76022;BME280;64718;52.124;6.226;2023-07-31T09:47:52;100585.78;;;18.99;100.00
76022;BME280;64718;52.124;6.226;2023-07-31T09:50:20;100571.38;;;18.60;100.00
76022;BME280;64718;52.124;6.226;2023-07-31T09:52:47;100579.78;;;18.65;100.00
76022;BME280;64718;52.124;6.226;2023-07-31T09:55:14;100570.53;;;18.59;100.00
76022;BME280;64718;52.124;6.226;2023-07-31T09:57:44;100575.59;;;18.51;100.00
76022;BME280;64718;52.124;6.226;2023-07-31T10:00:12;100569.50;;;18.62;100.00
76022;BME280;64718;52.124;6.226;2023-07-31T10:02:39;100576.66;;;18.60;100.00
76022;BME280;64718;52.124;6.226;2023-07-31T10:05:07;100571.75;;;18.44;100.00
76022;BME280;64718;52.124;6.226;2023-07-31T10:07:36;100578.56;;;18.58;100.00
76022;BME280;64718;52.124;6.226;2023-07-31T10:10:04;100580.75;;;18.64;100.00
76022;BME280;64718;52.124;6.226;2023-07-31T10:12:32;100577.03;;;18.55;100.00
76022;BME280;64718;52.124;6.226;2023-07-31T10:15:03;100584.31;;;18.41;100.00
76022;BME280;64718;52.124;6.226;2023-07-31T10:17:30;100585.78;;;18.22;100.00
76022;BME280;64718;52.124;6.226;2023-07-31T10:19:58;100585.38;;;18.49;100.00
76022;BME280;64718;52.124;6.226;2023-07-31T10:22:26;100578.34;;;18.50;100.00
76022;BME280;64718;52.124;6.226;2023-07-31T10:24:54;100577.38;;;18.51;100.00
76022;BME280;64718;52.124;6.226;2023-07-31T10:27:22;100572.13;;;18.28;100.00
76022;BME280;64718;52.124;6.226;2023-07-31T10:29:48;100568.19;;;18.23;100.00
76022;BME280;64718;52.124;6.226;2023-07-31T10:32:17;100576.31;;;18.31;100.00
76022;BME280;64718;52.124;6.226;2023-07-31T10:34:45;100577.38;;;18.51;100.00
76022;BME280;64718;52.124;6.226;2023-07-31T10:37:23;100579.63;;;18.78;100.00
76022;BME280;64718;52.124;6.226;2023-07-31T10:39:58;100565.63;;;18.77;100.00
76022;BME280;64718;52.124;6.226;2023-07-31T10:42:29;100569.56;;;18.49;100.00
76022;BME280;64718;52.124;6.226;2023-07-31T10:44:57;100572.56;;;18.45;100.00
76022;BME280;64718;52.124;6.226;2023-07-31T10:47:25;100575.69;;;18.39;100.00
76022;BME280;64718;52.124;6.226;2023-07-31T10:49:52;100575.81;;;18.48;100.00
76022;BME280;64718;52.124;6.226;2023-07-31T10:52:20;100575.81;;;18.37;100.00
76022;BME280;64718;52.124;6.226;2023-07-31T10:54:49;100570.28;;;18.74;100.00
76022;BME280;64718;52.124;6.226;2023-07-31T10:57:22;100570.19;;;18.53;100.00
76022;BME280;64718;52.124;6.226;2023-07-31T10:59:50;100564.91;;;18.42;100.00
76022;BME280;64718;52.124;6.226;2023-07-31T11:02:26;100569.38;;;18.63;100.00
76022;BME280;64718;52.124;6.226;2023-07-31T11:05:08;100563.69;;;18.79;100.00
76022;BME280;64718;52.124;6.226;2023-07-31T11:07:47;100558.56;;;18.99;100.00
76022;BME280;64718;52.124;6.226;2023-07-31T11:10:16;100562.03;;;19.10;100.00
76022;BME280;64718;52.124;6.226;2023-07-31T11:12:45;100562.16;;;19.09;100.00
76022;BME280;64718;52.124;6.226;2023-07-31T11:15:11;100559.88;;;19.04;100.00
76022;BME280;64718;52.124;6.226;2023-07-31T11:17:39;100555.31;;;19.06;100.00
76022;BME280;64718;52.124;6.226;2023-07-31T11:20:07;100546.28;;;19.62;100.00
76022;BME280;64718;52.124;6.226;2023-07-31T11:22:34;100548.72;;;20.05;100.00
76022;BME280;64718;52.124;6.226;2023-07-31T11:25:01;100545.25;;;20.04;100.00
76022;BME280;64718;52.124;6.226;2023-07-31T11:27:29;100548.78;;;19.84;100.00
76022;BME280;64718;52.124;6.226;2023-07-31T11:30:00;100555.47;;;19.88;100.00
76022;BME280;64718;52.124;6.226;2023-07-31T11:32:27;100547.28;;;19.91;100.00
76022;BME280;64718;52.124;6.226;2023-07-31T11:34:55;100552.66;;;19.80;100.00
76022;BME280;64718;52.124;6.226;2023-07-31T11:37:22;100541.22;;;19.70;100.00
76022;BME280;64718;52.124;6.226;2023-07-31T11:39:59;100553.84;;;19.66;100.00
76022;BME280;64718;52.124;6.226;2023-07-31T11:42:26;100554.78;;;19.65;100.00
76022;BME280;64718;52.124;6.226;2023-07-31T11:44:52;100560.59;;;19.80;100.00
76022;BME280;64718;52.124;6.226;2023-07-31T11:47:19;100557.50;;;20.05;100.00
76022;BME280;64718;52.124;6.226;2023-07-31T11:49:46;100562.38;;;19.79;100.00
76022;BME280;64718;52.124;6.226;2023-07-31T11:52:15;100538.81;;;19.87;100.00
76022;BME280;64718;52.124;6.226;2023-07-31T11:54:42;100551.75;;;19.90;100.00
76022;BME280;64718;52.124;6.226;2023-07-31T11:57:09;100554.53;;;19.99;100.00
76022;BME280;64718;52.124;6.226;2023-07-31T11:59:37;100543.22;;;19.77;100.00
76022;BME280;64718;52.124;6.226;2023-07-31T12:02:05;100539.66;;;19.46;100.00
76022;BME280;64718;52.124;6.226;2023-07-31T12:04:31;100554.69;;;19.14;100.00
76022;BME280;64718;52.124;6.226;2023-07-31T12:07:00;100551.69;;;18.86;100.00
76022;BME280;64718;52.124;6.226;2023-07-31T12:09:28;100551.50;;;18.99;100.00
76022;BME280;64718;52.124;6.226;2023-07-31T12:11:54;100555.56;;;18.71;100.00
76022;BME280;64718;52.124;6.226;2023-07-31T12:14:22;100551.06;;;18.94;100.00
76022;BME280;64718;52.124;6.226;2023-07-31T12:16:52;100542.28;;;19.25;100.00
76022;BME280;64718;52.124;6.226;2023-07-31T12:19:19;100551.75;;;18.96;100.00
76022;BME280;64718;52.124;6.226;2023-07-31T12:21:46;100546.94;;;19.01;100.00
76022;BME280;64718;52.124;6.226;2023-07-31T12:24:12;100540.38;;;18.95;100.00
76022;BME280;64718;52.124;6.226;2023-07-31T12:26:45;100539.50;;;19.06;100.00
76022;BME280;64718;52.124;6.226;2023-07-31T12:29:12;100532.91;;;19.12;100.00
76022;BME280;64718;52.124;6.226;2023-07-31T12:31:41;100537.41;;;19.21;100.00
76022;BME280;64718;52.124;6.226;2023-07-31T12:34:15;100537.69;;;19.07;100.00
76022;BME280;64718;52.124;6.226;2023-07-31T12:36:43;100535.22;;;18.94;100.00
76022;BME280;64718;52.124;6.226;2023-07-31T12:39:10;100533.53;;;18.72;100.00
76022;BME280;64718;52.124;6.226;2023-07-31T12:41:37;100540.75;;;18.91;100.00
76022;BME280;64718;52.124;6.226;2023-07-31T12:44:05;100533.56;;;18.93;100.00